sensor_id;sensor_type;location;lat;lon;timestamp;P1;durP1;ratioP1;P2;durP2;ratioP2
10945;SDS011;5525;42.648;23.368;2023-06-10T00:01:10;9.88;;;8.90;;
10945;SDS011;5525;42.648;23.368;2023-06-10T00:03:37;10.02;;;9.02;;
10945;SDS011;5525;42.648;23.368;2023-06-10T00:06:04;10.50;;;9.00;;
10945;SDS011;5525;42.648;23.368;2023-06-10T00:08:32;9.88;;;8.80;;
10945;SDS011;5525;42.648;23.368;2023-06-10T00:10:59;13.15;;;9.65;;
10945;SDS011;5525;42.648;23.368;2023-06-10T00:13:26;13.75;;;9.88;;
10945;SDS011;5525;42.648;23.368;2023-06-10T00:15:53;11.43;;;9.50;;
10945;SDS011;5525;42.648;23.368;2023-06-10T00:18:19;12.25;;;9.77;;
10945;SDS011;5525;42.648;23.368;2023-06-10T00:20:47;11.90;;;8.38;;
10945;SDS011;5525;42.648;23.368;2023-06-10T00:23:20;11.98;;;8.63;;
10945;SDS011;5525;42.648;23.368;2023-06-10T00:25:49;10.75;;;9.05;;
10945;SDS011;5525;42.648;23.368;2023-06-10T00:28:15;10.20;;;8.73;;
10945;SDS011;5525;42.648;23.368;2023-06-10T00:30:42;12.98;;;8.65;;
10945;SDS011;5525;42.648;23.368;2023-06-10T00:33:08;11.35;;;8.80;;
10945;SDS011;5525;42.648;23.368;2023-06-10T00:35:35;9.25;;;8.25;;
10945;SDS011;5525;42.648;23.368;2023-06-10T00:38:02;9.88;;;8.85;;
10945;SDS011;5525;42.648;23.368;2023-06-10T00:40:28;9.70;;;8.70;;
10945;SDS011;5525;42.648;23.368;2023-06-10T00:42:56;11.13;;;9.10;;
10945;SDS011;5525;42.648;23.368;2023-06-10T00:45:23;12.68;;;9.30;;
10945;SDS011;5525;42.648;23.368;2023-06-10T00:47:50;11.18;;;9.45;;
10945;SDS011;5525;42.648;23.368;2023-06-10T00:50:17;10.77;;;9.68;;
10945;SDS011;5525;42.648;23.368;2023-06-10T00:52:43;12.65;;;10.57;;
10945;SDS011;5525;42.648;23.368;2023-06-10T00:55:13;11.70;;;10.60;;
10945;SDS011;5525;42.648;23.368;2023-06-10T00:57:40;13.10;;;11.50;;
10945;SDS011;5525;42.648;23.368;2023-06-10T01:00:11;11.50;;;10.30;;
10945;SDS011;5525;42.648;23.368;2023-06-10T01:02:38;11.82;;;10.63;;
10945;SDS011;5525;42.648;23.368;2023-06-10T01:05:05;13.52;;;12.15;;
10945;SDS011;5525;42.648;23.368;2023-06-10T01:07:34;16.42;;;12.88;;
10945;SDS011;5525;42.648;23.368;2023-06-10T01:10:05;13.52;;;12.13;;
10945;SDS011;5525;42.648;23.368;2023-06-10T01:12:39;13.23;;;11.77;;
10945;SDS011;5525;42.648;23.368;2023-06-10T01:15:08;13.75;;;12.30;;
10945;SDS011;5525;42.648;23.368;2023-06-10T01:17:38;11.15;;;9.57;;
10945;SDS011;5525;42.648;23.368;2023-06-10T01:20:22;12.07;;;10.70;;
10945;SDS011;5525;42.648;23.368;2023-06-10T01:22:50;12.82;;;8.98;;
10945;SDS011;5525;42.648;23.368;2023-06-10T01:25:19;12.13;;;10.15;;
10945;SDS011;5525;42.648;23.368;2023-06-10T01:27:53;11.70;;;10.48;;
10945;SDS011;5525;42.648;23.368;2023-06-10T01:30:26;13.60;;;10.57;;
10945;SDS011;5525;42.648;23.368;2023-06-10T01:32:56;12.15;;;10.98;;
10945;SDS011;5525;42.648;23.368;2023-06-10T01:35:25;11.85;;;10.65;;
10945;SDS011;5525;42.648;23.368;2023-06-10T01:37:56;12.27;;;11.05;;
10945;SDS011;5525;42.648;23.368;2023-06-10T01:40:24;13.40;;;10.95;;
10945;SDS011;5525;42.648;23.368;2023-06-10T01:42:52;12.20;;;10.90;;
10945;SDS011;5525;42.648;23.368;2023-06-10T01:45:19;12.52;;;11.23;;
10945;SDS011;5525;42.648;23.368;2023-06-10T01:47:46;13.15;;;11.13;;
10945;SDS011;5525;42.648;23.368;2023-06-10T01:50:12;12.93;;;11.55;;
10945;SDS011;5525;42.648;23.368;2023-06-10T01:52:40;13.52;;;11.93;;
10945;SDS011;5525;42.648;23.368;2023-06-10T01:55:08;13.88;;;11.30;;
10945;SDS011;5525;42.648;23.368;2023-06-10T01:57:34;13.02;;;11.68;;
10945;SDS011;5525;42.648;23.368;2023-06-10T02:00:01;13.98;;;11.20;;
10945;SDS011;5525;42.648;23.368;2023-06-10T02:02:28;12.75;;;10.57;;
10945;SDS011;5525;42.648;23.368;2023-06-10T02:04:55;13.13;;;10.93;;
10945;SDS011;5525;42.648;23.368;2023-06-10T02:07:22;13.52;;;10.27;;
10945;SDS011;5525;42.648;23.368;2023-06-10T02:09:48;12.27;;;10.55;;
10945;SDS011;5525;42.648;23.368;2023-06-10T02:12:17;10.88;;;9.77;;
10945;SDS011;5525;42.648;23.368;2023-06-10T02:14:43;11.05;;;9.95;;
10945;SDS011;5525;42.648;23.368;2023-06-10T02:17:10;11.80;;;10.65;;
10945;SDS011;5525;42.648;23.368;2023-06-10T02:19:39;11.73;;;10.52;;
10945;SDS011;5525;42.648;23.368;2023-06-10T02:22:07;14.65;;;11.52;;
10945;SDS011;5525;42.648;23.368;2023-06-10T02:24:35;12.68;;;11.02;;
10945;SDS011;5525;42.648;23.368;2023-06-10T02:27:03;11.88;;;10.68;;
10945;SDS011;5525;42.648;23.368;2023-06-10T02:29:33;13.82;;;11.55;;
10945;SDS011;5525;42.648;23.368;2023-06-10T02:32:00;12.57;;;10.63;;
10945;SDS011;5525;42.648;23.368;2023-06-10T02:34:28;12.70;;;11.43;;
10945;SDS011;5525;42.648;23.368;2023-06-10T02:36:54;12.43;;;10.93;;
10945;SDS011;5525;42.648;23.368;2023-06-10T02:39:21;12.35;;;11.05;;
10945;SDS011;5525;42.648;23.368;2023-06-10T02:41:48;13.07;;;9.45;;
10945;SDS011;5525;42.648;23.368;2023-06-10T02:44:15;11.75;;;10.25;;
10945;SDS011;5525;42.648;23.368;2023-06-10T02:46:43;10.77;;;9.27;;
10945;SDS011;5525;42.648;23.368;2023-06-10T02:49:09;10.30;;;9.10;;
10945;SDS011;5525;42.648;23.368;2023-06-10T02:51:37;12.18;;;9.82;;
10945;SDS011;5525;42.648;23.368;2023-06-10T02:54:04;13.82;;;10.70;;
10945;SDS011;5525;42.648;23.368;2023-06-10T02:56:31;13.00;;;11.52;;
10945;SDS011;5525;42.648;23.368;2023-06-10T02:58:58;13.18;;;11.60;;
10945;SDS011;5525;42.648;23.368;2023-06-10T03:01:25;12.48;;;11.25;;
10945;SDS011;5525;42.648;23.368;2023-06-10T03:03:54;14.05;;;11.68;;
10945;SDS011;5525;42.648;23.368;2023-06-10T03:06:21;13.52;;;11.07;;
10945;SDS011;5525;42.648;23.368;2023-06-10T03:08:49;13.85;;;11.40;;
10945;SDS011;5525;42.648;23.368;2023-06-10T03:11:16;14.68;;;11.40;;
10945;SDS011;5525;42.648;23.368;2023-06-10T03:13:44;12.88;;;11.50;;
10945;SDS011;5525;42.648;23.368;2023-06-10T03:16:11;15.27;;;11.77;;
10945;SDS011;5525;42.648;23.368;2023-06-10T03:18:38;14.65;;;11.15;;
10945;SDS011;5525;42.648;23.368;2023-06-10T03:21:06;14.48;;;12.05;;
10945;SDS011;5525;42.648;23.368;2023-06-10T03:23:33;15.13;;;12.10;;
10945;SDS011;5525;42.648;23.368;2023-06-10T03:26:00;13.85;;;11.68;;
10945;SDS011;5525;42.648;23.368;2023-06-10T03:28:27;14.90;;;12.05;;
10945;SDS011;5525;42.648;23.368;2023-06-10T03:30:53;15.48;;;11.70;;
10945;SDS011;5525;42.648;23.368;2023-06-10T03:33:20;14.95;;;11.32;;
10945;SDS011;5525;42.648;23.368;2023-06-10T03:35:47;13.82;;;11.48;;
10945;SDS011;5525;42.648;23.368;2023-06-10T03:38:15;14.57;;;12.15;;
10945;SDS011;5525;42.648;23.368;2023-06-10T03:40:42;13.27;;;11.80;;
10945;SDS011;5525;42.648;23.368;2023-06-10T03:43:10;13.90;;;12.23;;
10945;SDS011;5525;42.648;23.368;2023-06-10T03:45:36;14.18;;;12.63;;
10945;SDS011;5525;42.648;23.368;2023-06-10T03:48:03;16.42;;;12.55;;
10945;SDS011;5525;42.648;23.368;2023-06-10T03:50:31;15.68;;;13.05;;
10945;SDS011;5525;42.648;23.368;2023-06-10T03:52:57;17.63;;;12.85;;
10945;SDS011;5525;42.648;23.368;2023-06-10T03:55:25;15.40;;;13.25;;
10945;SDS011;5525;42.648;23.368;2023-06-10T03:57:52;14.35;;;12.82;;
10945;SDS011;5525;42.648;23.368;2023-06-10T04:00:19;15.35;;;12.38;;
10945;SDS011;5525;42.648;23.368;2023-06-10T04:02:47;13.75;;;12.05;;
10945;SDS011;5525;42.648;23.368;2023-06-10T04:05:16;15.93;;;12.80;;
10945;SDS011;5525;42.648;23.368;2023-06-10T04:07:45;14.70;;;12.57;;
10945;SDS011;5525;42.648;23.368;2023-06-10T04:10:13;14.00;;;12.60;;
10945;SDS011;5525;42.648;23.368;2023-06-10T04:12:44;15.93;;;13.05;;
10945;SDS011;5525;42.648;23.368;2023-06-10T04:15:10;15.65;;;12.95;;
10945;SDS011;5525;42.648;23.368;2023-06-10T04:17:38;16.73;;;13.80;;
10945;SDS011;5525;42.648;23.368;2023-06-10T04:20:05;15.65;;;13.77;;
10945;SDS011;5525;42.648;23.368;2023-06-10T04:22:34;15.95;;;13.75;;
10945;SDS011;5525;42.648;23.368;2023-06-10T04:25:01;16.90;;;13.80;;
10945;SDS011;5525;42.648;23.368;2023-06-10T04:27:28;18.98;;;14.88;;
10945;SDS011;5525;42.648;23.368;2023-06-10T04:29:56;16.90;;;14.07;;
10945;SDS011;5525;42.648;23.368;2023-06-10T04:32:23;16.73;;;14.00;;
10945;SDS011;5525;42.648;23.368;2023-06-10T04:34:50;18.60;;;14.27;;
10945;SDS011;5525;42.648;23.368;2023-06-10T04:37:17;16.73;;;14.55;;
10945;SDS011;5525;42.648;23.368;2023-06-10T04:39:44;17.15;;;15.10;;
10945;SDS011;5525;42.648;23.368;2023-06-10T04:42:10;16.77;;;14.25;;
10945;SDS011;5525;42.648;23.368;2023-06-10T04:44:37;18.25;;;15.27;;
10945;SDS011;5525;42.648;23.368;2023-06-10T04:47:07;16.55;;;14.32;;
10945;SDS011;5525;42.648;23.368;2023-06-10T04:49:34;15.60;;;12.82;;
10945;SDS011;5525;42.648;23.368;2023-06-10T04:52:01;16.00;;;13.52;;
10945;SDS011;5525;42.648;23.368;2023-06-10T04:54:30;15.05;;;12.98;;
10945;SDS011;5525;42.648;23.368;2023-06-10T04:56:57;15.35;;;12.68;;
10945;SDS011;5525;42.648;23.368;2023-06-10T04:59:24;13.57;;;11.98;;
10945;SDS011;5525;42.648;23.368;2023-06-10T05:01:51;13.20;;;11.85;;
10945;SDS011;5525;42.648;23.368;2023-06-10T05:04:19;13.38;;;11.98;;
10945;SDS011;5525;42.648;23.368;2023-06-10T05:06:45;13.45;;;11.75;;
10945;SDS011;5525;42.648;23.368;2023-06-10T05:09:12;13.07;;;11.75;;
10945;SDS011;5525;42.648;23.368;2023-06-10T05:11:39;14.45;;;12.52;;
10945;SDS011;5525;42.648;23.368;2023-06-10T05:14:05;13.25;;;11.95;;
10945;SDS011;5525;42.648;23.368;2023-06-10T05:16:32;13.80;;;11.70;;
10945;SDS011;5525;42.648;23.368;2023-06-10T05:18:58;13.20;;;11.85;;
10945;SDS011;5525;42.648;23.368;2023-06-10T05:21:27;17.30;;;13.77;;
10945;SDS011;5525;42.648;23.368;2023-06-10T05:23:53;17.13;;;12.95;;
10945;SDS011;5525;42.648;23.368;2023-06-10T05:26:20;13.80;;;12.32;;
10945;SDS011;5525;42.648;23.368;2023-06-10T05:28:47;14.38;;;12.88;;
10945;SDS011;5525;42.648;23.368;2023-06-10T05:31:14;14.32;;;12.93;;
10945;SDS011;5525;42.648;23.368;2023-06-10T05:33:40;14.05;;;12.55;;
10945;SDS011;5525;42.648;23.368;2023-06-10T05:36:07;12.88;;;11.57;;
10945;SDS011;5525;42.648;23.368;2023-06-10T05:38:35;17.08;;;12.80;;
10945;SDS011;5525;42.648;23.368;2023-06-10T05:41:02;14.48;;;11.25;;
10945;SDS011;5525;42.648;23.368;2023-06-10T05:43:29;12.95;;;11.07;;
10945;SDS011;5525;42.648;23.368;2023-06-10T05:45:56;12.20;;;11.10;;
10945;SDS011;5525;42.648;23.368;2023-06-10T05:48:22;12.63;;;11.20;;
10945;SDS011;5525;42.648;23.368;2023-06-10T05:50:49;13.88;;;12.10;;
10945;SDS011;5525;42.648;23.368;2023-06-10T05:53:16;14.57;;;11.95;;
10945;SDS011;5525;42.648;23.368;2023-06-10T05:55:44;13.98;;;12.60;;
10945;SDS011;5525;42.648;23.368;2023-06-10T05:58:11;13.48;;;12.10;;
10945;SDS011;5525;42.648;23.368;2023-06-10T06:00:39;13.57;;;11.75;;
10945;SDS011;5525;42.648;23.368;2023-06-10T06:03:06;13.55;;;12.23;;
10945;SDS011;5525;42.648;23.368;2023-06-10T06:05:33;14.40;;;12.90;;
10945;SDS011;5525;42.648;23.368;2023-06-10T06:08:02;14.52;;;13.02;;
10945;SDS011;5525;42.648;23.368;2023-06-10T06:10:29;15.35;;;13.23;;
10945;SDS011;5525;42.648;23.368;2023-06-10T06:12:57;14.80;;;13.30;;
10945;SDS011;5525;42.648;23.368;2023-06-10T06:15:24;14.82;;;13.00;;
10945;SDS011;5525;42.648;23.368;2023-06-10T06:17:50;15.32;;;13.77;;
10945;SDS011;5525;42.648;23.368;2023-06-10T06:20:18;16.17;;;13.38;;
10945;SDS011;5525;42.648;23.368;2023-06-10T06:22:45;14.18;;;12.80;;
10945;SDS011;5525;42.648;23.368;2023-06-10T06:25:11;16.80;;;13.45;;
10945;SDS011;5525;42.648;23.368;2023-06-10T06:27:38;16.00;;;14.40;;
10945;SDS011;5525;42.648;23.368;2023-06-10T06:30:07;19.45;;;15.32;;
10945;SDS011;5525;42.648;23.368;2023-06-10T06:32:34;15.73;;;13.45;;
10945;SDS011;5525;42.648;23.368;2023-06-10T06:35:01;17.67;;;14.00;;
10945;SDS011;5525;42.648;23.368;2023-06-10T06:37:27;15.88;;;13.07;;
10945;SDS011;5525;42.648;23.368;2023-06-10T06:39:54;14.85;;;13.10;;
10945;SDS011;5525;42.648;23.368;2023-06-10T06:42:21;15.35;;;13.70;;
10945;SDS011;5525;42.648;23.368;2023-06-10T06:44:47;16.13;;;14.20;;
10945;SDS011;5525;42.648;23.368;2023-06-10T06:47:15;15.95;;;13.60;;
10945;SDS011;5525;42.648;23.368;2023-06-10T06:49:44;16.73;;;13.05;;
10945;SDS011;5525;42.648;23.368;2023-06-10T06:52:11;17.08;;;12.30;;
10945;SDS011;5525;42.648;23.368;2023-06-10T06:54:38;17.08;;;12.05;;
10945;SDS011;5525;42.648;23.368;2023-06-10T06:57:05;16.80;;;11.85;;
10945;SDS011;5525;42.648;23.368;2023-06-10T06:59:32;12.27;;;9.88;;
10945;SDS011;5525;42.648;23.368;2023-06-10T07:01:58;13.00;;;10.00;;
10945;SDS011;5525;42.648;23.368;2023-06-10T07:04:26;10.77;;;9.43;;
10945;SDS011;5525;42.648;23.368;2023-06-10T07:06:54;10.65;;;8.05;;
10945;SDS011;5525;42.648;23.368;2023-06-10T07:09:20;11.90;;;8.57;;
10945;SDS011;5525;42.648;23.368;2023-06-10T07:11:47;19.08;;;8.45;;
10945;SDS011;5525;42.648;23.368;2023-06-10T07:14:14;10.57;;;7.88;;
10945;SDS011;5525;42.648;23.368;2023-06-10T07:16:40;10.88;;;7.75;;
10945;SDS011;5525;42.648;23.368;2023-06-10T07:19:07;15.68;;;8.40;;
10945;SDS011;5525;42.648;23.368;2023-06-10T07:21:35;15.02;;;8.80;;
10945;SDS011;5525;42.648;23.368;2023-06-10T07:24:03;10.98;;;8.25;;
10945;SDS011;5525;42.648;23.368;2023-06-10T07:26:30;9.95;;;7.32;;
10945;SDS011;5525;42.648;23.368;2023-06-10T07:28:56;7.07;;;6.35;;
10945;SDS011;5525;42.648;23.368;2023-06-10T07:31:23;9.55;;;5.88;;
10945;SDS011;5525;42.648;23.368;2023-06-10T07:33:50;13.05;;;6.15;;
10945;SDS011;5525;42.648;23.368;2023-06-10T07:36:16;9.70;;;5.38;;
10945;SDS011;5525;42.648;23.368;2023-06-10T07:38:45;7.82;;;5.03;;
10945;SDS011;5525;42.648;23.368;2023-06-10T07:41:11;6.13;;;5.10;;
10945;SDS011;5525;42.648;23.368;2023-06-10T07:43:39;6.55;;;5.25;;
10945;SDS011;5525;42.648;23.368;2023-06-10T07:46:05;7.82;;;5.50;;
10945;SDS011;5525;42.648;23.368;2023-06-10T07:48:32;7.38;;;5.50;;
10945;SDS011;5525;42.648;23.368;2023-06-10T07:50:59;12.02;;;5.63;;
10945;SDS011;5525;42.648;23.368;2023-06-10T07:53:25;12.70;;;6.10;;
10945;SDS011;5525;42.648;23.368;2023-06-10T07:55:53;9.75;;;5.20;;
10945;SDS011;5525;42.648;23.368;2023-06-10T07:58:20;7.93;;;5.47;;
10945;SDS011;5525;42.648;23.368;2023-06-10T08:00:47;7.72;;;6.28;;
10945;SDS011;5525;42.648;23.368;2023-06-10T08:03:13;23.60;;;7.15;;
10945;SDS011;5525;42.648;23.368;2023-06-10T08:05:40;8.73;;;5.90;;
10945;SDS011;5525;42.648;23.368;2023-06-10T08:08:07;9.38;;;5.78;;
10945;SDS011;5525;42.648;23.368;2023-06-10T08:10:33;9.13;;;5.72;;
10945;SDS011;5525;42.648;23.368;2023-06-10T08:13:01;9.93;;;5.88;;
10945;SDS011;5525;42.648;23.368;2023-06-10T08:15:28;7.78;;;5.57;;
10945;SDS011;5525;42.648;23.368;2023-06-10T08:17:55;7.10;;;5.20;;
10945;SDS011;5525;42.648;23.368;2023-06-10T08:20:22;13.63;;;4.80;;
10945;SDS011;5525;42.648;23.368;2023-06-10T08:22:49;11.05;;;4.40;;
10945;SDS011;5525;42.648;23.368;2023-06-10T08:25:15;6.13;;;4.38;;
10945;SDS011;5525;42.648;23.368;2023-06-10T08:27:42;5.32;;;3.78;;
10945;SDS011;5525;42.648;23.368;2023-06-10T08:30:11;7.53;;;4.97;;
10945;SDS011;5525;42.648;23.368;2023-06-10T08:32:38;3.63;;;3.33;;
10945;SDS011;5525;42.648;23.368;2023-06-10T08:35:05;5.60;;;3.20;;
10945;SDS011;5525;42.648;23.368;2023-06-10T08:37:32;3.58;;;3.25;;
10945;SDS011;5525;42.648;23.368;2023-06-10T08:39:58;4.68;;;3.53;;
10945;SDS011;5525;42.648;23.368;2023-06-10T08:42:28;6.63;;;4.10;;
10945;SDS011;5525;42.648;23.368;2023-06-10T08:45:01;5.15;;;3.63;;
10945;SDS011;5525;42.648;23.368;2023-06-10T08:47:30;5.47;;;3.97;;
10945;SDS011;5525;42.648;23.368;2023-06-10T08:49:57;5.35;;;3.60;;
10945;SDS011;5525;42.648;23.368;2023-06-10T08:52:29;4.03;;;3.63;;
10945;SDS011;5525;42.648;23.368;2023-06-10T08:55:02;10.25;;;4.18;;
10945;SDS011;5525;42.648;23.368;2023-06-10T08:57:30;7.20;;;3.90;;
10945;SDS011;5525;42.648;23.368;2023-06-10T08:59:57;7.03;;;4.72;;
10945;SDS011;5525;42.648;23.368;2023-06-10T09:02:24;4.90;;;3.85;;
10945;SDS011;5525;42.648;23.368;2023-06-10T09:04:52;4.35;;;3.95;;
10945;SDS011;5525;42.648;23.368;2023-06-10T09:07:22;4.03;;;3.63;;
10945;SDS011;5525;42.648;23.368;2023-06-10T09:09:49;5.97;;;3.85;;
10945;SDS011;5525;42.648;23.368;2023-06-10T09:12:18;3.58;;;3.17;;
10945;SDS011;5525;42.648;23.368;2023-06-10T09:14:45;3.60;;;3.30;;
10945;SDS011;5525;42.648;23.368;2023-06-10T09:17:12;6.10;;;3.53;;
10945;SDS011;5525;42.648;23.368;2023-06-10T09:19:38;4.60;;;3.38;;
10945;SDS011;5525;42.648;23.368;2023-06-10T09:22:09;3.85;;;3.50;;
10945;SDS011;5525;42.648;23.368;2023-06-10T09:24:36;24.25;;;5.68;;
10945;SDS011;5525;42.648;23.368;2023-06-10T09:27:03;6.60;;;3.22;;
10945;SDS011;5525;42.648;23.368;2023-06-10T09:29:31;2.60;;;2.42;;
10945;SDS011;5525;42.648;23.368;2023-06-10T09:31:58;4.63;;;3.10;;
10945;SDS011;5525;42.648;23.368;2023-06-10T09:34:25;3.92;;;2.92;;
10945;SDS011;5525;42.648;23.368;2023-06-10T09:36:52;4.35;;;2.90;;
10945;SDS011;5525;42.648;23.368;2023-06-10T09:39:20;3.17;;;2.88;;
10945;SDS011;5525;42.648;23.368;2023-06-10T09:41:47;3.53;;;2.40;;
10945;SDS011;5525;42.648;23.368;2023-06-10T09:44:14;3.78;;;2.50;;
10945;SDS011;5525;42.648;23.368;2023-06-10T09:46:43;3.00;;;2.80;;
10945;SDS011;5525;42.648;23.368;2023-06-10T09:49:11;2.90;;;2.60;;
10945;SDS011;5525;42.648;23.368;2023-06-10T09:51:41;3.30;;;3.00;;
10945;SDS011;5525;42.648;23.368;2023-06-10T09:54:15;3.40;;;3.20;;
10945;SDS011;5525;42.648;23.368;2023-06-10T09:56:44;3.50;;;3.20;;
10945;SDS011;5525;42.648;23.368;2023-06-10T09:59:13;3.58;;;2.90;;
10945;SDS011;5525;42.648;23.368;2023-06-10T10:01:41;3.95;;;3.13;;
10945;SDS011;5525;42.648;23.368;2023-06-10T10:04:07;3.45;;;3.15;;
10945;SDS011;5525;42.648;23.368;2023-06-10T10:06:34;4.20;;;3.25;;
10945;SDS011;5525;42.648;23.368;2023-06-10T10:09:02;3.25;;;2.80;;
10945;SDS011;5525;42.648;23.368;2023-06-10T10:11:30;3.28;;;2.97;;
10945;SDS011;5525;42.648;23.368;2023-06-10T10:14:01;5.65;;;3.30;;
10945;SDS011;5525;42.648;23.368;2023-06-10T10:16:36;3.60;;;3.30;;
10945;SDS011;5525;42.648;23.368;2023-06-10T10:19:07;4.03;;;3.63;;
10945;SDS011;5525;42.648;23.368;2023-06-10T10:21:37;3.45;;;3.15;;
10945;SDS011;5525;42.648;23.368;2023-06-10T10:24:09;3.90;;;3.20;;
10945;SDS011;5525;42.648;23.368;2023-06-10T10:26:42;3.67;;;3.38;;
10945;SDS011;5525;42.648;23.368;2023-06-10T10:29:14;5.28;;;3.95;;
10945;SDS011;5525;42.648;23.368;2023-06-10T10:31:46;4.35;;;3.67;;
10945;SDS011;5525;42.648;23.368;2023-06-10T10:34:19;4.18;;;3.35;;
10945;SDS011;5525;42.648;23.368;2023-06-10T10:36:51;4.45;;;3.13;;
10945;SDS011;5525;42.648;23.368;2023-06-10T10:39:18;3.53;;;3.22;;
10945;SDS011;5525;42.648;23.368;2023-06-10T10:41:45;4.05;;;3.40;;
10945;SDS011;5525;42.648;23.368;2023-06-10T10:44:15;4.18;;;3.10;;
10945;SDS011;5525;42.648;23.368;2023-06-10T10:46:43;4.82;;;2.92;;
10945;SDS011;5525;42.648;23.368;2023-06-10T10:49:10;3.55;;;3.00;;
10945;SDS011;5525;42.648;23.368;2023-06-10T10:51:53;3.72;;;3.20;;
10945;SDS011;5525;42.648;23.368;2023-06-10T10:54:28;3.40;;;2.92;;
10945;SDS011;5525;42.648;23.368;2023-06-10T10:57:14;3.63;;;3.30;;
10945;SDS011;5525;42.648;23.368;2023-06-10T10:59:44;3.67;;;3.38;;
10945;SDS011;5525;42.648;23.368;2023-06-10T11:02:35;7.07;;;3.30;;
10945;SDS011;5525;42.648;23.368;2023-06-10T11:05:05;3.78;;;3.47;;
10945;SDS011;5525;42.648;23.368;2023-06-10T11:07:32;14.02;;;4.22;;
10945;SDS011;5525;42.648;23.368;2023-06-10T11:10:00;5.68;;;3.90;;
10945;SDS011;5525;42.648;23.368;2023-06-10T11:15:25;4.90;;;3.90;;
10945;SDS011;5525;42.648;23.368;2023-06-10T11:18:12;4.05;;;3.63;;
10945;SDS011;5525;42.648;23.368;2023-06-10T11:20:56;3.53;;;3.22;;
10945;SDS011;5525;42.648;23.368;2023-06-10T11:23:31;5.25;;;3.90;;
10945;SDS011;5525;42.648;23.368;2023-06-10T11:29:00;4.43;;;3.60;;
10945;SDS011;5525;42.648;23.368;2023-06-10T11:31:45;4.85;;;3.65;;
10945;SDS011;5525;42.648;23.368;2023-06-10T11:34:15;4.18;;;3.60;;
10945;SDS011;5525;42.648;23.368;2023-06-10T11:36:49;4.25;;;3.67;;
10945;SDS011;5525;42.648;23.368;2023-06-10T11:39:18;4.35;;;3.35;;
10945;SDS011;5525;42.648;23.368;2023-06-10T11:41:46;5.13;;;3.75;;
10945;SDS011;5525;42.648;23.368;2023-06-10T11:44:13;4.22;;;3.63;;
10945;SDS011;5525;42.648;23.368;2023-06-10T11:46:40;4.50;;;3.95;;
10945;SDS011;5525;42.648;23.368;2023-06-10T11:49:11;4.28;;;3.88;;
10945;SDS011;5525;42.648;23.368;2023-06-10T11:51:38;3.33;;;3.03;;
10945;SDS011;5525;42.648;23.368;2023-06-10T11:54:09;6.68;;;3.80;;
10945;SDS011;5525;42.648;23.368;2023-06-10T11:56:36;9.68;;;3.88;;
10945;SDS011;5525;42.648;23.368;2023-06-10T11:59:03;3.83;;;3.42;;
10945;SDS011;5525;42.648;23.368;2023-06-10T12:01:32;5.45;;;4.13;;
10945;SDS011;5525;42.648;23.368;2023-06-10T12:04:00;5.72;;;3.80;;
10945;SDS011;5525;42.648;23.368;2023-06-10T12:06:38;4.78;;;3.30;;
10945;SDS011;5525;42.648;23.368;2023-06-10T12:09:06;3.72;;;3.33;;
10945;SDS011;5525;42.648;23.368;2023-06-10T12:11:33;5.25;;;3.60;;
10945;SDS011;5525;42.648;23.368;2023-06-10T12:14:01;4.38;;;3.22;;
10945;SDS011;5525;42.648;23.368;2023-06-10T12:16:28;4.15;;;3.40;;
10945;SDS011;5525;42.648;23.368;2023-06-10T12:19:00;3.50;;;3.20;;
10945;SDS011;5525;42.648;23.368;2023-06-10T12:21:28;3.50;;;3.20;;
10945;SDS011;5525;42.648;23.368;2023-06-10T12:24:08;4.80;;;3.63;;
10945;SDS011;5525;42.648;23.368;2023-06-10T12:26:39;4.43;;;3.20;;
10945;SDS011;5525;42.648;23.368;2023-06-10T12:29:20;5.75;;;3.58;;
10945;SDS011;5525;42.648;23.368;2023-06-10T12:31:59;3.75;;;3.30;;
10945;SDS011;5525;42.648;23.368;2023-06-10T12:34:34;3.72;;;3.42;;
10945;SDS011;5525;42.648;23.368;2023-06-10T12:37:03;4.47;;;3.55;;
10945;SDS011;5525;42.648;23.368;2023-06-10T12:39:32;5.30;;;3.30;;
10945;SDS011;5525;42.648;23.368;2023-06-10T12:42:00;5.68;;;3.40;;
10945;SDS011;5525;42.648;23.368;2023-06-10T12:44:31;4.88;;;3.50;;
10945;SDS011;5525;42.648;23.368;2023-06-10T12:46:59;3.50;;;3.20;;
10945;SDS011;5525;42.648;23.368;2023-06-10T12:49:26;3.60;;;3.03;;
10945;SDS011;5525;42.648;23.368;2023-06-10T12:51:53;4.35;;;3.10;;
10945;SDS011;5525;42.648;23.368;2023-06-10T12:54:20;3.97;;;3.35;;
10945;SDS011;5525;42.648;23.368;2023-06-10T12:56:49;4.32;;;3.65;;
10945;SDS011;5525;42.648;23.368;2023-06-10T12:59:16;3.78;;;3.20;;
10945;SDS011;5525;42.648;23.368;2023-06-10T13:01:42;4.10;;;3.38;;
10945;SDS011;5525;42.648;23.368;2023-06-10T13:04:09;4.28;;;3.10;;
10945;SDS011;5525;42.648;23.368;2023-06-10T13:06:36;3.55;;;3.10;;
10945;SDS011;5525;42.648;23.368;2023-06-10T13:09:03;6.50;;;3.30;;
10945;SDS011;5525;42.648;23.368;2023-06-10T13:11:32;3.30;;;3.00;;
10945;SDS011;5525;42.648;23.368;2023-06-10T13:14:00;3.70;;;3.28;;
10945;SDS011;5525;42.648;23.368;2023-06-10T13:16:27;5.57;;;3.20;;
10945;SDS011;5525;42.648;23.368;2023-06-10T13:18:55;5.55;;;3.67;;
10945;SDS011;5525;42.648;23.368;2023-06-10T13:21:21;4.50;;;3.53;;
10945;SDS011;5525;42.648;23.368;2023-06-10T13:23:48;4.50;;;3.58;;
10945;SDS011;5525;42.648;23.368;2023-06-10T13:26:16;4.60;;;3.20;;
10945;SDS011;5525;42.648;23.368;2023-06-10T13:28:43;3.70;;;3.03;;
10945;SDS011;5525;42.648;23.368;2023-06-10T13:31:11;6.68;;;3.45;;
10945;SDS011;5525;42.648;23.368;2023-06-10T13:33:37;6.00;;;3.08;;
10945;SDS011;5525;42.648;23.368;2023-06-10T13:36:05;5.57;;;3.40;;
10945;SDS011;5525;42.648;23.368;2023-06-10T13:38:31;4.93;;;3.80;;
10945;SDS011;5525;42.648;23.368;2023-06-10T13:40:58;5.63;;;3.80;;
10945;SDS011;5525;42.648;23.368;2023-06-10T13:43:26;5.63;;;3.70;;
10945;SDS011;5525;42.648;23.368;2023-06-10T13:45:53;6.57;;;4.00;;
10945;SDS011;5525;42.648;23.368;2023-06-10T13:48:21;5.03;;;3.35;;
10945;SDS011;5525;42.648;23.368;2023-06-10T13:50:48;6.03;;;4.05;;
10945;SDS011;5525;42.648;23.368;2023-06-10T13:53:15;6.47;;;4.07;;
10945;SDS011;5525;42.648;23.368;2023-06-10T13:55:41;4.85;;;4.00;;
10945;SDS011;5525;42.648;23.368;2023-06-10T13:58:08;5.47;;;3.80;;
10945;SDS011;5525;42.648;23.368;2023-06-10T14:00:35;5.03;;;3.70;;
10945;SDS011;5525;42.648;23.368;2023-06-10T14:03:01;6.15;;;4.30;;
10945;SDS011;5525;42.648;23.368;2023-06-10T14:05:30;6.43;;;3.70;;
10945;SDS011;5525;42.648;23.368;2023-06-10T14:07:58;6.65;;;3.95;;
10945;SDS011;5525;42.648;23.368;2023-06-10T14:10:25;4.03;;;3.60;;
10945;SDS011;5525;42.648;23.368;2023-06-10T14:12:51;6.50;;;4.63;;
10945;SDS011;5525;42.648;23.368;2023-06-10T14:15:18;4.53;;;4.03;;
10945;SDS011;5525;42.648;23.368;2023-06-10T14:17:45;5.57;;;3.88;;
10945;SDS011;5525;42.648;23.368;2023-06-10T14:20:12;5.65;;;3.92;;
10945;SDS011;5525;42.648;23.368;2023-06-10T14:22:40;4.32;;;3.92;;
10945;SDS011;5525;42.648;23.368;2023-06-10T14:25:07;5.50;;;3.70;;
10945;SDS011;5525;42.648;23.368;2023-06-10T14:27:34;6.35;;;3.67;;
10945;SDS011;5525;42.648;23.368;2023-06-10T14:30:01;5.72;;;3.80;;
10945;SDS011;5525;42.648;23.368;2023-06-10T14:32:29;4.30;;;3.72;;
10945;SDS011;5525;42.648;23.368;2023-06-10T14:34:55;4.68;;;3.58;;
10945;SDS011;5525;42.648;23.368;2023-06-10T14:37:22;3.80;;;3.40;;
10945;SDS011;5525;42.648;23.368;2023-06-10T14:39:50;4.80;;;3.88;;
10945;SDS011;5525;42.648;23.368;2023-06-10T14:42:17;4.65;;;3.63;;
10945;SDS011;5525;42.648;23.368;2023-06-10T14:44:43;4.10;;;3.70;;
10945;SDS011;5525;42.648;23.368;2023-06-10T14:47:10;4.63;;;3.80;;